sensor_id;sensor_type;location;lat;lon;timestamp;P1;durP1;ratioP1;P2;durP2;ratioP2
58689;SDS011;44470;53.206;-6.106;2022-12-07T00:01:44;4.03;;;2.58;;
58689;SDS011;44470;53.206;-6.106;2022-12-07T00:04:29;3.35;;;1.95;;
58689;SDS011;44470;53.206;-6.106;2022-12-07T00:06:55;2.22;;;2.03;;
58689;SDS011;44470;53.206;-6.106;2022-12-07T00:09:23;4.25;;;2.50;;
58689;SDS011;44470;53.206;-6.106;2022-12-07T00:11:49;3.63;;;2.15;;
58689;SDS011;44470;53.206;-6.106;2022-12-07T00:14:16;2.53;;;2.25;;
58689;SDS011;44470;53.206;-6.106;2022-12-07T00:16:43;2.45;;;2.10;;
58689;SDS011;44470;53.206;-6.106;2022-12-07T00:19:10;3.67;;;2.17;;
58689;SDS011;44470;53.206;-6.106;2022-12-07T00:21:44;2.70;;;1.98;;
58689;SDS011;44470;53.206;-6.106;2022-12-07T00:24:15;6.72;;;2.42;;
58689;SDS011;44470;53.206;-6.106;2022-12-07T00:26:42;2.70;;;2.20;;
58689;SDS011;44470;53.206;-6.106;2022-12-07T00:29:17;3.38;;;2.20;;
58689;SDS011;44470;53.206;-6.106;2022-12-07T00:31:45;3.42;;;2.25;;
58689;SDS011;44470;53.206;-6.106;2022-12-07T00:34:12;3.20;;;2.28;;
58689;SDS011;44470;53.206;-6.106;2022-12-07T00:36:40;4.50;;;1.90;;
58689;SDS011;44470;53.206;-6.106;2022-12-07T00:39:05;2.50;;;2.17;;
58689;SDS011;44470;53.206;-6.106;2022-12-07T00:41:31;3.83;;;2.15;;
58689;SDS011;44470;53.206;-6.106;2022-12-07T00:43:57;3.53;;;2.25;;
58689;SDS011;44470;53.206;-6.106;2022-12-07T00:46:23;4.72;;;2.40;;
58689;SDS011;44470;53.206;-6.106;2022-12-07T00:48:53;2.05;;;1.73;;
58689;SDS011;44470;53.206;-6.106;2022-12-07T00:51:23;3.20;;;2.10;;
58689;SDS011;44470;53.206;-6.106;2022-12-07T00:53:53;9.43;;;2.33;;
58689;SDS011;44470;53.206;-6.106;2022-12-07T00:56:20;4.78;;;2.33;;
58689;SDS011;44470;53.206;-6.106;2022-12-07T00:58:59;4.18;;;2.28;;
58689;SDS011;44470;53.206;-6.106;2022-12-07T01:01:44;4.80;;;2.05;;
58689;SDS011;44470;53.206;-6.106;2022-12-07T01:04:09;4.15;;;1.85;;
58689;SDS011;44470;53.206;-6.106;2022-12-07T01:06:35;4.07;;;2.15;;
58689;SDS011;44470;53.206;-6.106;2022-12-07T01:09:00;5.82;;;2.13;;
58689;SDS011;44470;53.206;-6.106;2022-12-07T01:11:34;3.85;;;2.08;;
58689;SDS011;44470;53.206;-6.106;2022-12-07T01:14:00;4.00;;;2.25;;
58689;SDS011;44470;53.206;-6.106;2022-12-07T01:16:27;3.85;;;2.50;;
58689;SDS011;44470;53.206;-6.106;2022-12-07T01:19:01;3.08;;;2.03;;
58689;SDS011;44470;53.206;-6.106;2022-12-07T01:21:30;3.22;;;1.67;;
58689;SDS011;44470;53.206;-6.106;2022-12-07T01:24:02;4.47;;;1.98;;
58689;SDS011;44470;53.206;-6.106;2022-12-07T01:26:33;3.25;;;1.90;;
58689;SDS011;44470;53.206;-6.106;2022-12-07T01:29:04;2.58;;;1.90;;
58689;SDS011;44470;53.206;-6.106;2022-12-07T01:31:33;4.03;;;1.98;;
58689;SDS011;44470;53.206;-6.106;2022-12-07T01:34:00;4.28;;;1.90;;
58689;SDS011;44470;53.206;-6.106;2022-12-07T01:36:28;2.80;;;1.80;;
58689;SDS011;44470;53.206;-6.106;2022-12-07T01:39:05;2.15;;;1.92;;
58689;SDS011;44470;53.206;-6.106;2022-12-07T01:41:33;2.55;;;2.03;;
58689;SDS011;44470;53.206;-6.106;2022-12-07T01:49:39;3.58;;;1.70;;
58689;SDS011;44470;53.206;-6.106;2022-12-07T01:54:42;1.95;;;1.73;;
58689;SDS011;44470;53.206;-6.106;2022-12-07T01:57:18;2.55;;;1.65;;
58689;SDS011;44470;53.206;-6.106;2022-12-07T02:00:09;1.77;;;1.65;;
58689;SDS011;44470;53.206;-6.106;2022-12-07T02:02:48;3.78;;;1.70;;
58689;SDS011;44470;53.206;-6.106;2022-12-07T02:05:38;3.08;;;2.00;;
58689;SDS011;44470;53.206;-6.106;2022-12-07T02:08:06;1.63;;;1.43;;
58689;SDS011;44470;53.206;-6.106;2022-12-07T02:10:52;3.03;;;1.80;;
58689;SDS011;44470;53.206;-6.106;2022-12-07T02:13:38;1.73;;;1.50;;
58689;SDS011;44470;53.206;-6.106;2022-12-07T02:18:50;1.85;;;1.50;;
58689;SDS011;44470;53.206;-6.106;2022-12-07T02:30:17;2.50;;;1.77;;
58689;SDS011;44470;53.206;-6.106;2022-12-07T02:32:56;2.08;;;1.60;;
58689;SDS011;44470;53.206;-6.106;2022-12-07T02:35:44;1.92;;;1.73;;
58689;SDS011;44470;53.206;-6.106;2022-12-07T02:38:18;1.92;;;1.52;;
58689;SDS011;44470;53.206;-6.106;2022-12-07T02:41:22;2.05;;;1.50;;
58689;SDS011;44470;53.206;-6.106;2022-12-07T02:44:06;1.42;;;1.33;;
58689;SDS011;44470;53.206;-6.106;2022-12-07T02:46:50;1.45;;;1.35;;
58689;SDS011;44470;53.206;-6.106;2022-12-07T02:49:23;1.63;;;1.52;;
58689;SDS011;44470;53.206;-6.106;2022-12-07T02:51:52;2.22;;;1.58;;
58689;SDS011;44470;53.206;-6.106;2022-12-07T02:54:18;2.05;;;1.50;;
58689;SDS011;44470;53.206;-6.106;2022-12-07T03:00:09;1.80;;;1.58;;
58689;SDS011;44470;53.206;-6.106;2022-12-07T03:03:04;1.38;;;1.27;;
58689;SDS011;44470;53.206;-6.106;2022-12-07T03:10:50;1.55;;;1.13;;
58689;SDS011;44470;53.206;-6.106;2022-12-07T03:13:49;1.50;;;1.40;;
58689;SDS011;44470;53.206;-6.106;2022-12-07T03:16:27;2.17;;;1.70;;
58689;SDS011;44470;53.206;-6.106;2022-12-07T03:19:17;2.42;;;1.23;;
58689;SDS011;44470;53.206;-6.106;2022-12-07T03:22:08;1.67;;;1.30;;
58689;SDS011;44470;53.206;-6.106;2022-12-07T03:24:59;1.35;;;1.25;;
58689;SDS011;44470;53.206;-6.106;2022-12-07T03:27:32;1.90;;;1.50;;
58689;SDS011;44470;53.206;-6.106;2022-12-07T03:30:09;2.75;;;1.67;;
58689;SDS011;44470;53.206;-6.106;2022-12-07T03:33:06;2.10;;;1.30;;
58689;SDS011;44470;53.206;-6.106;2022-12-07T03:35:45;1.75;;;1.27;;
58689;SDS011;44470;53.206;-6.106;2022-12-07T03:41:41;2.22;;;1.40;;
58689;SDS011;44470;53.206;-6.106;2022-12-07T03:44:24;1.50;;;1.40;;
58689;SDS011;44470;53.206;-6.106;2022-12-07T03:46:52;1.40;;;1.27;;
58689;SDS011;44470;53.206;-6.106;2022-12-07T03:52:37;2.00;;;1.27;;
58689;SDS011;44470;53.206;-6.106;2022-12-07T03:55:14;1.02;;;1.00;;
58689;SDS011;44470;53.206;-6.106;2022-12-07T03:58:06;1.08;;;0.98;;
58689;SDS011;44470;53.206;-6.106;2022-12-07T04:00:37;1.00;;;1.00;;
58689;SDS011;44470;53.206;-6.106;2022-12-07T04:03:03;1.33;;;1.17;;
58689;SDS011;44470;53.206;-6.106;2022-12-07T04:05:29;1.13;;;1.13;;
58689;SDS011;44470;53.206;-6.106;2022-12-07T04:07:55;2.28;;;1.60;;
58689;SDS011;44470;53.206;-6.106;2022-12-07T04:10:20;1.05;;;1.05;;
58689;SDS011;44470;53.206;-6.106;2022-12-07T04:12:46;1.20;;;1.10;;
58689;SDS011;44470;53.206;-6.106;2022-12-07T04:15:12;1.58;;;1.25;;
58689;SDS011;44470;53.206;-6.106;2022-12-07T04:17:38;1.90;;;1.23;;
58689;SDS011;44470;53.206;-6.106;2022-12-07T04:20:04;1.35;;;1.20;;
58689;SDS011;44470;53.206;-6.106;2022-12-07T04:22:33;1.45;;;1.35;;
58689;SDS011;44470;53.206;-6.106;2022-12-07T04:25:00;1.10;;;1.00;;
58689;SDS011;44470;53.206;-6.106;2022-12-07T04:27:26;1.10;;;1.00;;
58689;SDS011;44470;53.206;-6.106;2022-12-07T04:29:51;1.30;;;1.02;;
58689;SDS011;44470;53.206;-6.106;2022-12-07T04:32:17;1.10;;;1.10;;
58689;SDS011;44470;53.206;-6.106;2022-12-07T04:34:42;1.15;;;1.05;;
58689;SDS011;44470;53.206;-6.106;2022-12-07T04:37:08;1.27;;;1.10;;
58689;SDS011;44470;53.206;-6.106;2022-12-07T04:39:33;1.38;;;1.20;;
58689;SDS011;44470;53.206;-6.106;2022-12-07T04:42:02;1.20;;;1.10;;
58689;SDS011;44470;53.206;-6.106;2022-12-07T04:44:28;1.55;;;1.20;;
58689;SDS011;44470;53.206;-6.106;2022-12-07T04:46:54;1.30;;;1.20;;
58689;SDS011;44470;53.206;-6.106;2022-12-07T04:49:21;1.30;;;1.20;;
58689;SDS011;44470;53.206;-6.106;2022-12-07T04:51:46;1.50;;;1.30;;
58689;SDS011;44470;53.206;-6.106;2022-12-07T04:54:13;1.20;;;1.10;;
58689;SDS011;44470;53.206;-6.106;2022-12-07T04:57:02;1.52;;;1.17;;
58689;SDS011;44470;53.206;-6.106;2022-12-07T04:59:27;1.95;;;1.58;;
58689;SDS011;44470;53.206;-6.106;2022-12-07T05:01:53;1.30;;;1.20;;
58689;SDS011;44470;53.206;-6.106;2022-12-07T05:04:18;1.90;;;1.35;;
58689;SDS011;44470;53.206;-6.106;2022-12-07T05:06:45;1.15;;;1.05;;
58689;SDS011;44470;53.206;-6.106;2022-12-07T05:09:10;1.30;;;1.20;;
58689;SDS011;44470;53.206;-6.106;2022-12-07T05:11:36;0.70;;;0.70;;
58689;SDS011;44470;53.206;-6.106;2022-12-07T05:14:06;1.17;;;1.08;;
58689;SDS011;44470;53.206;-6.106;2022-12-07T05:16:32;1.00;;;1.00;;
58689;SDS011;44470;53.206;-6.106;2022-12-07T05:18:57;0.88;;;0.80;;
58689;SDS011;44470;53.206;-6.106;2022-12-07T05:21:23;1.08;;;1.08;;
58689;SDS011;44470;53.206;-6.106;2022-12-07T05:23:57;0.90;;;0.90;;
58689;SDS011;44470;53.206;-6.106;2022-12-07T05:26:23;0.70;;;0.70;;
58689;SDS011;44470;53.206;-6.106;2022-12-07T05:28:52;1.45;;;0.95;;
58689;SDS011;44470;53.206;-6.106;2022-12-07T05:31:22;1.00;;;1.00;;
58689;SDS011;44470;53.206;-6.106;2022-12-07T05:33:49;0.80;;;0.80;;
58689;SDS011;44470;53.206;-6.106;2022-12-07T05:36:14;0.70;;;0.70;;
58689;SDS011;44470;53.206;-6.106;2022-12-07T05:38:40;1.27;;;1.13;;
58689;SDS011;44470;53.206;-6.106;2022-12-07T05:41:06;0.85;;;0.85;;
58689;SDS011;44470;53.206;-6.106;2022-12-07T05:43:59;0.95;;;0.80;;
58689;SDS011;44470;53.206;-6.106;2022-12-07T05:46:29;1.88;;;1.05;;
58689;SDS011;44470;53.206;-6.106;2022-12-07T05:48:54;1.40;;;1.30;;
58689;SDS011;44470;53.206;-6.106;2022-12-07T05:51:20;1.23;;;1.10;;
58689;SDS011;44470;53.206;-6.106;2022-12-07T05:53:45;1.80;;;1.15;;
58689;SDS011;44470;53.206;-6.106;2022-12-07T05:56:11;1.10;;;0.80;;
58689;SDS011;44470;53.206;-6.106;2022-12-07T05:58:37;0.98;;;0.90;;
58689;SDS011;44470;53.206;-6.106;2022-12-07T06:01:22;1.35;;;0.80;;
58689;SDS011;44470;53.206;-6.106;2022-12-07T06:03:47;1.08;;;1.08;;
58689;SDS011;44470;53.206;-6.106;2022-12-07T06:06:13;0.75;;;0.75;;
58689;SDS011;44470;53.206;-6.106;2022-12-07T06:08:38;1.55;;;1.15;;
58689;SDS011;44470;53.206;-6.106;2022-12-07T06:11:04;1.10;;;1.00;;
58689;SDS011;44470;53.206;-6.106;2022-12-07T06:13:48;1.42;;;1.30;;
58689;SDS011;44470;53.206;-6.106;2022-12-07T06:16:15;0.90;;;0.90;;
58689;SDS011;44470;53.206;-6.106;2022-12-07T06:18:41;1.13;;;0.90;;
58689;SDS011;44470;53.206;-6.106;2022-12-07T06:21:06;1.15;;;1.08;;
58689;SDS011;44470;53.206;-6.106;2022-12-07T06:23:32;1.30;;;1.05;;
58689;SDS011;44470;53.206;-6.106;2022-12-07T06:25:57;0.88;;;0.80;;
58689;SDS011;44470;53.206;-6.106;2022-12-07T06:28:23;1.67;;;1.00;;
58689;SDS011;44470;53.206;-6.106;2022-12-07T06:30:58;1.45;;;1.30;;
58689;SDS011;44470;53.206;-6.106;2022-12-07T06:33:28;1.08;;;0.98;;
58689;SDS011;44470;53.206;-6.106;2022-12-07T06:35:54;1.13;;;1.10;;
58689;SDS011;44470;53.206;-6.106;2022-12-07T06:38:19;1.40;;;1.17;;
58689;SDS011;44470;53.206;-6.106;2022-12-07T06:40:45;1.55;;;0.80;;
58689;SDS011;44470;53.206;-6.106;2022-12-07T06:43:11;1.10;;;0.98;;
58689;SDS011;44470;53.206;-6.106;2022-12-07T06:45:37;1.10;;;1.00;;
58689;SDS011;44470;53.206;-6.106;2022-12-07T06:48:03;1.20;;;1.10;;
58689;SDS011;44470;53.206;-6.106;2022-12-07T06:50:28;1.05;;;0.80;;
58689;SDS011;44470;53.206;-6.106;2022-12-07T06:52:55;0.90;;;0.80;;
58689;SDS011;44470;53.206;-6.106;2022-12-07T06:55:24;1.02;;;1.02;;
58689;SDS011;44470;53.206;-6.106;2022-12-07T06:57:51;1.30;;;1.20;;
58689;SDS011;44470;53.206;-6.106;2022-12-07T07:00:16;1.17;;;1.08;;
58689;SDS011;44470;53.206;-6.106;2022-12-07T07:02:42;0.73;;;0.73;;
58689;SDS011;44470;53.206;-6.106;2022-12-07T07:05:08;0.90;;;0.90;;
58689;SDS011;44470;53.206;-6.106;2022-12-07T07:07:33;1.40;;;1.08;;
58689;SDS011;44470;53.206;-6.106;2022-12-07T07:10:00;1.05;;;0.95;;
58689;SDS011;44470;53.206;-6.106;2022-12-07T07:12:26;0.88;;;0.88;;
58689;SDS011;44470;53.206;-6.106;2022-12-07T07:14:54;0.75;;;0.75;;
58689;SDS011;44470;53.206;-6.106;2022-12-07T07:17:21;1.30;;;1.08;;
58689;SDS011;44470;53.206;-6.106;2022-12-07T07:19:46;1.33;;;1.20;;
58689;SDS011;44470;53.206;-6.106;2022-12-07T07:22:15;1.27;;;1.08;;
58689;SDS011;44470;53.206;-6.106;2022-12-07T07:24:41;1.52;;;0.88;;
58689;SDS011;44470;53.206;-6.106;2022-12-07T07:27:06;1.23;;;1.13;;
58689;SDS011;44470;53.206;-6.106;2022-12-07T07:29:32;1.08;;;1.08;;
58689;SDS011;44470;53.206;-6.106;2022-12-07T07:31:57;0.88;;;0.88;;
58689;SDS011;44470;53.206;-6.106;2022-12-07T07:34:23;1.35;;;0.93;;
58689;SDS011;44470;53.206;-6.106;2022-12-07T07:36:48;1.77;;;1.10;;
58689;SDS011;44470;53.206;-6.106;2022-12-07T07:39:14;8.50;;;1.55;;
58689;SDS011;44470;53.206;-6.106;2022-12-07T07:41:39;2.72;;;1.00;;
58689;SDS011;44470;53.206;-6.106;2022-12-07T07:44:11;1.67;;;1.10;;
58689;SDS011;44470;53.206;-6.106;2022-12-07T07:46:37;3.90;;;1.15;;
58689;SDS011;44470;53.206;-6.106;2022-12-07T07:49:03;3.78;;;1.48;;
58689;SDS011;44470;53.206;-6.106;2022-12-07T07:51:28;6.30;;;1.58;;
58689;SDS011;44470;53.206;-6.106;2022-12-07T07:53:54;6.97;;;2.08;;
58689;SDS011;44470;53.206;-6.106;2022-12-07T07:56:19;12.77;;;2.15;;
58689;SDS011;44470;53.206;-6.106;2022-12-07T07:58:45;9.40;;;1.95;;
58689;SDS011;44470;53.206;-6.106;2022-12-07T08:01:10;12.90;;;1.77;;
58689;SDS011;44470;53.206;-6.106;2022-12-07T08:03:37;4.72;;;1.40;;
58689;SDS011;44470;53.206;-6.106;2022-12-07T08:06:03;9.02;;;1.65;;
58689;SDS011;44470;53.206;-6.106;2022-12-07T08:08:29;1.77;;;1.20;;
58689;SDS011;44470;53.206;-6.106;2022-12-07T08:10:57;4.75;;;1.42;;
58689;SDS011;44470;53.206;-6.106;2022-12-07T08:13:45;2.15;;;1.05;;
58689;SDS011;44470;53.206;-6.106;2022-12-07T08:16:13;3.20;;;1.50;;
58689;SDS011;44470;53.206;-6.106;2022-12-07T08:18:43;2.92;;;1.08;;
58689;SDS011;44470;53.206;-6.106;2022-12-07T08:21:15;1.70;;;1.00;;
58689;SDS011;44470;53.206;-6.106;2022-12-07T08:23:40;3.63;;;1.52;;
58689;SDS011;44470;53.206;-6.106;2022-12-07T08:26:08;1.15;;;1.00;;
58689;SDS011;44470;53.206;-6.106;2022-12-07T08:28:54;2.53;;;1.02;;
58689;SDS011;44470;53.206;-6.106;2022-12-07T08:31:19;1.92;;;1.00;;
58689;SDS011;44470;53.206;-6.106;2022-12-07T08:33:45;2.20;;;1.33;;
58689;SDS011;44470;53.206;-6.106;2022-12-07T08:36:12;3.85;;;1.52;;
58689;SDS011;44470;53.206;-6.106;2022-12-07T08:38:39;2.58;;;1.30;;
58689;SDS011;44470;53.206;-6.106;2022-12-07T08:41:08;3.60;;;1.00;;
58689;SDS011;44470;53.206;-6.106;2022-12-07T08:43:35;2.70;;;1.08;;
58689;SDS011;44470;53.206;-6.106;2022-12-07T08:48:55;1.80;;;0.95;;
58689;SDS011;44470;53.206;-6.106;2022-12-07T08:51:24;3.22;;;1.30;;
58689;SDS011;44470;53.206;-6.106;2022-12-07T08:53:50;1.50;;;1.35;;
58689;SDS011;44470;53.206;-6.106;2022-12-07T08:56:23;2.00;;;1.10;;
58689;SDS011;44470;53.206;-6.106;2022-12-07T08:58:49;1.58;;;1.13;;
58689;SDS011;44470;53.206;-6.106;2022-12-07T09:01:29;1.25;;;1.00;;
58689;SDS011;44470;53.206;-6.106;2022-12-07T09:03:55;1.80;;;1.00;;
58689;SDS011;44470;53.206;-6.106;2022-12-07T09:06:26;2.10;;;1.50;;
58689;SDS011;44470;53.206;-6.106;2022-12-07T09:08:53;1.23;;;1.10;;
58689;SDS011;44470;53.206;-6.106;2022-12-07T09:11:24;2.55;;;0.90;;
58689;SDS011;44470;53.206;-6.106;2022-12-07T09:13:50;1.88;;;0.82;;
58689;SDS011;44470;53.206;-6.106;2022-12-07T09:16:15;1.75;;;1.20;;
58689;SDS011;44470;53.206;-6.106;2022-12-07T09:18:41;2.10;;;1.10;;
58689;SDS011;44470;53.206;-6.106;2022-12-07T09:21:08;1.85;;;1.00;;
58689;SDS011;44470;53.206;-6.106;2022-12-07T09:23:37;2.83;;;1.00;;
58689;SDS011;44470;53.206;-6.106;2022-12-07T09:26:03;1.45;;;0.90;;
58689;SDS011;44470;53.206;-6.106;2022-12-07T09:28:33;1.05;;;1.00;;
58689;SDS011;44470;53.206;-6.106;2022-12-07T09:31:01;1.00;;;0.93;;
58689;SDS011;44470;53.206;-6.106;2022-12-07T09:33:29;2.03;;;0.88;;
58689;SDS011;44470;53.206;-6.106;2022-12-07T09:35:54;1.38;;;0.85;;
58689;SDS011;44470;53.206;-6.106;2022-12-07T09:38:20;1.00;;;0.88;;
58689;SDS011;44470;53.206;-6.106;2022-12-07T09:40:47;0.98;;;0.90;;
58689;SDS011;44470;53.206;-6.106;2022-12-07T09:43:20;1.23;;;0.98;;
58689;SDS011;44470;53.206;-6.106;2022-12-07T09:45:55;0.88;;;0.80;;
58689;SDS011;44470;53.206;-6.106;2022-12-07T09:48:30;1.55;;;0.90;;
58689;SDS011;44470;53.206;-6.106;2022-12-07T09:50:59;0.95;;;0.82;;
58689;SDS011;44470;53.206;-6.106;2022-12-07T09:53:30;1.38;;;1.00;;
58689;SDS011;44470;53.206;-6.106;2022-12-07T09:56:01;1.48;;;0.70;;
58689;SDS011;44470;53.206;-6.106;2022-12-07T09:58:28;1.92;;;0.88;;
58689;SDS011;44470;53.206;-6.106;2022-12-07T10:01:01;1.08;;;1.05;;
58689;SDS011;44470;53.206;-6.106;2022-12-07T10:03:37;0.82;;;0.82;;
58689;SDS011;44470;53.206;-6.106;2022-12-07T10:06:05;1.55;;;0.98;;
58689;SDS011;44470;53.206;-6.106;2022-12-07T10:08:32;1.60;;;0.80;;
58689;SDS011;44470;53.206;-6.106;2022-12-07T10:11:01;1.52;;;0.80;;
58689;SDS011;44470;53.206;-6.106;2022-12-07T10:13:44;1.70;;;1.02;;
58689;SDS011;44470;53.206;-6.106;2022-12-07T10:16:35;0.80;;;0.77;;
58689;SDS011;44470;53.206;-6.106;2022-12-07T10:22:13;1.10;;;0.80;;
58689;SDS011;44470;53.206;-6.106;2022-12-07T10:24:42;0.95;;;0.60;;
58689;SDS011;44470;53.206;-6.106;2022-12-07T10:27:29;1.15;;;0.93;;
58689;SDS011;44470;53.206;-6.106;2022-12-07T10:29:58;1.25;;;0.88;;
58689;SDS011;44470;53.206;-6.106;2022-12-07T10:32:30;1.38;;;0.73;;
58689;SDS011;44470;53.206;-6.106;2022-12-07T10:37:50;1.60;;;0.80;;
58689;SDS011;44470;53.206;-6.106;2022-12-07T10:45:34;1.75;;;1.00;;
58689;SDS011;44470;53.206;-6.106;2022-12-07T10:51:17;1.38;;;0.70;;
58689;SDS011;44470;53.206;-6.106;2022-12-07T10:54:32;0.75;;;0.75;;
58689;SDS011;44470;53.206;-6.106;2022-12-07T11:00:23;0.98;;;0.90;;
58689;SDS011;44470;53.206;-6.106;2022-12-07T11:11:23;0.82;;;0.82;;
58689;SDS011;44470;53.206;-6.106;2022-12-07T11:14:37;0.70;;;0.70;;
58689;SDS011;44470;53.206;-6.106;2022-12-07T11:17:20;1.48;;;0.75;;
58689;SDS011;44470;53.206;-6.106;2022-12-07T11:23:21;1.02;;;0.50;;
58689;SDS011;44470;53.206;-6.106;2022-12-07T11:29:24;0.77;;;0.77;;
58689;SDS011;44470;53.206;-6.106;2022-12-07T11:37:32;1.27;;;0.70;;
58689;SDS011;44470;53.206;-6.106;2022-12-07T11:43:21;0.80;;;0.55;;
58689;SDS011;44470;53.206;-6.106;2022-12-07T11:46:11;0.60;;;0.60;;
58689;SDS011;44470;53.206;-6.106;2022-12-07T11:48:49;0.98;;;0.75;;
58689;SDS011;44470;53.206;-6.106;2022-12-07T11:51:29;0.77;;;0.77;;
58689;SDS011;44470;53.206;-6.106;2022-12-07T11:54:12;1.50;;;0.80;;
58689;SDS011;44470;53.206;-6.106;2022-12-07T11:56:43;0.88;;;0.40;;
58689;SDS011;44470;53.206;-6.106;2022-12-07T12:02:26;1.10;;;0.75;;
58689;SDS011;44470;53.206;-6.106;2022-12-07T12:05:17;1.10;;;0.93;;
58689;SDS011;44470;53.206;-6.106;2022-12-07T12:07:52;1.42;;;0.80;;
58689;SDS011;44470;53.206;-6.106;2022-12-07T12:21:39;0.50;;;0.50;;
58689;SDS011;44470;53.206;-6.106;2022-12-07T12:24:14;1.00;;;0.60;;
58689;SDS011;44470;53.206;-6.106;2022-12-07T12:26:51;0.98;;;0.40;;
58689;SDS011;44470;53.206;-6.106;2022-12-07T12:29:30;0.63;;;0.47;;
58689;SDS011;44470;53.206;-6.106;2022-12-07T12:32:15;0.60;;;0.60;;
58689;SDS011;44470;53.206;-6.106;2022-12-07T12:38:20;1.75;;;0.77;;
58689;SDS011;44470;53.206;-6.106;2022-12-07T12:40:42;1.58;;;0.80;;
58689;SDS011;44470;53.206;-6.106;2022-12-07T12:46:45;0.50;;;0.50;;
58689;SDS011;44470;53.206;-6.106;2022-12-07T12:51:47;0.50;;;0.45;;
58689;SDS011;44470;53.206;-6.106;2022-12-07T13:02:48;0.52;;;0.52;;
58689;SDS011;44470;53.206;-6.106;2022-12-07T13:05:19;2.58;;;0.82;;
58689;SDS011;44470;53.206;-6.106;2022-12-07T13:31:55;1.25;;;0.60;;
58689;SDS011;44470;53.206;-6.106;2022-12-07T13:34:38;0.70;;;0.70;;
58689;SDS011;44470;53.206;-6.106;2022-12-07T13:39:56;2.10;;;0.85;;
58689;SDS011;44470;53.206;-6.106;2022-12-07T13:42:27;1.45;;;0.70;;
58689;SDS011;44470;53.206;-6.106;2022-12-07T13:44:53;0.80;;;0.60;;
58689;SDS011;44470;53.206;-6.106;2022-12-07T13:47:34;4.35;;;0.88;;
58689;SDS011;44470;53.206;-6.106;2022-12-07T13:52:55;1.77;;;0.70;;
58689;SDS011;44470;53.206;-6.106;2022-12-07T13:55:29;3.47;;;0.70;;
58689;SDS011;44470;53.206;-6.106;2022-12-07T13:58:14;3.95;;;0.80;;
58689;SDS011;44470;53.206;-6.106;2022-12-07T14:00:40;3.00;;;1.00;;
58689;SDS011;44470;53.206;-6.106;2022-12-07T14:05:42;2.45;;;0.63;;
58689;SDS011;44470;53.206;-6.106;2022-12-07T14:08:30;3.08;;;0.73;;
58689;SDS011;44470;53.206;-6.106;2022-12-07T14:10:56;2.22;;;1.17;;
58689;SDS011;44470;53.206;-6.106;2022-12-07T14:13:39;2.85;;;1.13;;
58689;SDS011;44470;53.206;-6.106;2022-12-07T14:16:30;2.15;;;0.90;;
58689;SDS011;44470;53.206;-6.106;2022-12-07T14:19:44;2.22;;;0.85;;
58689;SDS011;44470;53.206;-6.106;2022-12-07T14:22:26;2.05;;;0.70;;
58689;SDS011;44470;53.206;-6.106;2022-12-07T14:25:20;3.50;;;0.95;;
58689;SDS011;44470;53.206;-6.106;2022-12-07T14:28:30;2.30;;;0.90;;
58689;SDS011;44470;53.206;-6.106;2022-12-07T14:31:10;2.67;;;1.00;;
58689;SDS011;44470;53.206;-6.106;2022-12-07T14:33:41;1.65;;;0.85;;
58689;SDS011;44470;53.206;-6.106;2022-12-07T14:36:12;1.38;;;1.27;;
58689;SDS011;44470;53.206;-6.106;2022-12-07T14:38:57;2.05;;;1.08;;
58689;SDS011;44470;53.206;-6.106;2022-12-07T14:41:28;2.50;;;1.23;;
58689;SDS011;44470;53.206;-6.106;2022-12-07T14:44:12;2.85;;;1.08;;
58689;SDS011;44470;53.206;-6.106;2022-12-07T14:46:38;2.33;;;0.90;;
58689;SDS011;44470;53.206;-6.106;2022-12-07T14:49:07;2.47;;;0.90;;
58689;SDS011;44470;53.206;-6.106;2022-12-07T14:51:33;4.50;;;1.07;;
58689;SDS011;44470;53.206;-6.106;2022-12-07T14:54:16;1.63;;;0.80;;
58689;SDS011;44470;53.206;-6.106;2022-12-07T14:59:16;3.00;;;0.90;;
58689;SDS011;44470;53.206;-6.106;2022-12-07T15:01:45;2.30;;;1.08;;
58689;SDS011;44470;53.206;-6.106;2022-12-07T15:04:16;3.60;;;0.90;;
58689;SDS011;44470;53.206;-6.106;2022-12-07T15:06:53;1.27;;;0.90;;
58689;SDS011;44470;53.206;-6.106;2022-12-07T15:09:21;1.35;;;1.10;;
58689;SDS011;44470;53.206;-6.106;2022-12-07T15:11:46;5.82;;;1.20;;
58689;SDS011;44470;53.206;-6.106;2022-12-07T15:14:12;2.20;;;1.23;;
58689;SDS011;44470;53.206;-6.106;2022-12-07T15:16:39;2.20;;;1.02;;
58689;SDS011;44470;53.206;-6.106;2022-12-07T15:19:21;1.90;;;1.00;;
58689;SDS011;44470;53.206;-6.106;2022-12-07T15:22:08;1.25;;;0.85;;
58689;SDS011;44470;53.206;-6.106;2022-12-07T15:24:37;1.30;;;0.90;;
58689;SDS011;44470;53.206;-6.106;2022-12-07T15:27:02;1.45;;;0.88;;
58689;SDS011;44470;53.206;-6.106;2022-12-07T15:29:30;1.13;;;0.93;;
58689;SDS011;44470;53.206;-6.106;2022-12-07T15:32:00;3.30;;;1.08;;
58689;SDS011;44470;53.206;-6.106;2022-12-07T15:34:26;1.30;;;1.08;;
58689;SDS011;44470;53.206;-6.106;2022-12-07T15:36:53;2.45;;;1.00;;
58689;SDS011;44470;53.206;-6.106;2022-12-07T15:39:19;1.17;;;0.98;;
58689;SDS011;44470;53.206;-6.106;2022-12-07T15:41:46;0.90;;;0.88;;
58689;SDS011;44470;53.206;-6.106;2022-12-07T15:44:12;1.48;;;1.17;;
58689;SDS011;44470;53.206;-6.106;2022-12-07T15:46:58;0.85;;;0.85;;
58689;SDS011;44470;53.206;-6.106;2022-12-07T15:49:24;3.60;;;1.30;;
58689;SDS011;44470;53.206;-6.106;2022-12-07T15:51:56;1.48;;;1.20;;
58689;SDS011;44470;53.206;-6.106;2022-12-07T15:54:26;1.45;;;1.13;;
58689;SDS011;44470;53.206;-6.106;2022-12-07T15:56:54;1.35;;;1.10;;
58689;SDS011;44470;53.206;-6.106;2022-12-07T15:59:30;1.85;;;1.35;;
58689;SDS011;44470;53.206;-6.106;2022-12-07T16:01:57;3.17;;;1.40;;
58689;SDS011;44470;53.206;-6.106;2022-12-07T16:04:26;3.22;;;1.30;;
58689;SDS011;44470;53.206;-6.106;2022-12-07T16:06:54;2.00;;;1.20;;
58689;SDS011;44470;53.206;-6.106;2022-12-07T16:09:21;1.77;;;1.10;;
58689;SDS011;44470;53.206;-6.106;2022-12-07T16:11:46;1.50;;;1.40;;
58689;SDS011;44470;53.206;-6.106;2022-12-07T16:14:17;1.70;;;1.15;;
58689;SDS011;44470;53.206;-6.106;2022-12-07T16:16:43;3.25;;;1.65;;
58689;SDS011;44470;53.206;-6.106;2022-12-07T16:19:08;1.67;;;1.40;;
58689;SDS011;44470;53.206;-6.106;2022-12-07T16:21:36;1.35;;;1.08;;
58689;SDS011;44470;53.206;-6.106;2022-12-07T16:24:01;1.75;;;1.27;;
58689;SDS011;44470;53.206;-6.106;2022-12-07T16:26:28;3.38;;;1.27;;
58689;SDS011;44470;53.206;-6.106;2022-12-07T16:28:54;2.30;;;1.27;;
58689;SDS011;44470;53.206;-6.106;2022-12-07T16:31:26;2.95;;;1.35;;
58689;SDS011;44470;53.206;-6.106;2022-12-07T16:33:53;2.17;;;1.58;;
58689;SDS011;44470;53.206;-6.106;2022-12-07T16:36:22;2.13;;;1.63;;
58689;SDS011;44470;53.206;-6.106;2022-12-07T16:39:08;4.10;;;2.03;;
58689;SDS011;44470;53.206;-6.106;2022-12-07T16:41:34;2.70;;;1.50;;
58689;SDS011;44470;53.206;-6.106;2022-12-07T16:44:05;1.65;;;1.55;;
58689;SDS011;44470;53.206;-6.106;2022-12-07T16:46:38;4.45;;;1.30;;
58689;SDS011;44470;53.206;-6.106;2022-12-07T16:49:09;2.97;;;2.03;;
58689;SDS011;44470;53.206;-6.106;2022-12-07T16:51:38;4.13;;;1.45;;
58689;SDS011;44470;53.206;-6.106;2022-12-07T16:54:23;2.85;;;1.52;;
58689;SDS011;44470;53.206;-6.106;2022-12-07T16:56:49;1.75;;;1.50;;
58689;SDS011;44470;53.206;-6.106;2022-12-07T16:59:17;2.42;;;1.30;;
58689;SDS011;44470;53.206;-6.106;2022-12-07T17:01:42;3.67;;;1.70;;
58689;SDS011;44470;53.206;-6.106;2022-12-07T17:04:08;2.72;;;1.35;;
58689;SDS011;44470;53.206;-6.106;2022-12-07T17:06:37;2.00;;;1.30;;
58689;SDS011;44470;53.206;-6.106;2022-12-07T17:09:02;1.67;;;1.58;;
58689;SDS011;44470;53.206;-6.106;2022-12-07T17:11:36;1.80;;;1.30;;
58689;SDS011;44470;53.206;-6.106;2022-12-07T17:14:01;3.95;;;1.77;;
58689;SDS011;44470;53.206;-6.106;2022-12-07T17:16:47;4.68;;;1.52;;
58689;SDS011;44470;53.206;-6.106;2022-12-07T17:19:13;4.22;;;1.50;;
58689;SDS011;44470;53.206;-6.106;2022-12-07T17:21:44;3.22;;;1.73;;
58689;SDS011;44470;53.206;-6.106;2022-12-07T17:24:10;3.50;;;1.70;;
58689;SDS011;44470;53.206;-6.106;2022-12-07T17:26:47;3.92;;;1.45;;